Time;durP1;ratioP1;P1;durP2;ratioP2;P2;SDS_P1;SDS_P2;PMS_P1;PMS_P2;Temp;Humidity;BMP_temperature;BMP_pressure;BME280_temperature;BME280_humidity;BME280_pressure;Samples;Min_cycle;Max_cycle;Signal;HPM_P1;HPM_P2
2021/12/03 00:02:02;;;;;;;10.63;6.35;;;;;;;;;;5072481;28;20081;-79
2021/12/03 00:04:29;;;;;;;9.77;6.00;;;;;;;;;;5071157;28;20093;-79
2021/12/03 00:06:55;;;;;;;10.50;5.82;;;;;;;;;;5072424;28;20061;-78
2021/12/03 00:09:22;;;;;;;11.60;5.85;;;;;;;;;;5070891;28;20080;-79
2021/12/03 00:11:48;;;;;;;15.45;6.38;;;;;;;;;;5064895;28;20057;-79
2021/12/03 00:14:14;;;;;;;11.15;5.47;;;;;;;;;;5072986;28;20052;-79
2021/12/03 00:16:41;;;;;;;12.70;6.20;;;;;;;;;;5072312;28;20107;-78
2021/12/03 00:19:07;;;;;;;10.80;5.50;;;;;;;;;;5072376;28;20121;-79
2021/12/03 00:21:34;;;;;;;13.65;5.68;;;;;;;;;;5075753;28;20114;-79
2021/12/03 00:24:00;;;;;;;12.63;5.82;;;;;;;;;;5084992;28;20076;-78
2021/12/03 00:26:26;;;;;;;12.20;5.80;;;;;;;;;;5071408;28;20064;-78
2021/12/03 00:28:53;;;;;;;14.60;6.45;;;;;;;;;;5070349;28;20056;-78
2021/12/03 00:31:19;;;;;;;13.98;6.40;;;;;;;;;;5050178;28;20053;-79
2021/12/03 00:33:46;;;;;;;13.13;6.15;;;;;;;;;;5063176;28;20092;-79
2021/12/03 00:36:12;;;;;;;11.40;6.55;;;;;;;;;;5070238;28;20045;-78
2021/12/03 00:38:42;;;;;;;14.40;6.05;;;;;;;;;;5070785;28;20068;-77
2021/12/03 00:41:10;;;;;;;13.43;6.03;;;;;;;;;;5070038;28;20503;-79
2021/12/03 00:43:41;;;;;;;17.17;6.55;;;;;;;;;;5070272;28;20060;-79
2021/12/03 00:46:09;;;;;;;12.10;6.40;;;;;;;;;;5071030;28;20108;-78
2021/12/03 00:48:37;;;;;;;14.45;6.60;;;;;;;;;;5064506;28;20986;-79
2021/12/03 00:51:05;;;;;;;16.67;6.63;;;;;;;;;;5069317;28;20072;-78
2021/12/03 00:53:32;;;;;;;14.25;5.68;;;;;;;;;;5069942;28;20558;-79
2021/12/03 00:55:58;;;;;;;15.02;5.78;;;;;;;;;;5079096;28;20056;-79
2021/12/03 00:58:24;;;;;;;14.90;6.43;;;;;;;;;;5092476;28;20791;-78
2021/12/03 01:00:51;;;;;;;11.85;5.97;;;;;;;;;;5072597;28;20103;-79
2021/12/03 01:03:17;;;;;;;16.92;7.05;;;;;;;;;;5070816;28;20072;-79
2021/12/03 01:05:44;;;;;;;19.67;7.00;;;;;;;;;;5071800;28;20053;-78
2021/12/03 01:08:11;;;;;;;16.50;7.20;;;;;;;;;;5070423;28;20099;-78
2021/12/03 01:10:37;;;;;;;21.15;7.43;;;;;;;;;;5071031;28;20060;-78
2021/12/03 01:13:04;;;;;;;18.55;7.10;;;;;;;;;;5079104;28;20129;-79
2021/12/03 01:15:33;;;;;;;22.52;7.88;;;;;;;;;;5077292;28;20099;-78
2021/12/03 01:17:59;;;;;;;22.33;7.78;;;;;;;;;;5072722;28;20084;-78
2021/12/03 01:20:26;;;;;;;21.20;7.88;;;;;;;;;;5070318;28;20107;-78
2021/12/03 01:22:53;;;;;;;20.80;8.05;;;;;;;;;;5070610;28;20123;-79
2021/12/03 01:25:20;;;;;;;19.70;7.45;;;;;;;;;;5069732;28;20053;-79
2021/12/03 01:27:47;;;;;;;21.20;7.88;;;;;;;;;;5072989;28;20060;-79
2021/12/03 01:30:14;;;;;;;20.92;7.82;;;;;;;;;;5076925;28;20099;-78
2021/12/03 01:32:41;;;;;;;19.95;8.88;;;;;;;;;;5076330;28;20138;-78
2021/12/03 01:35:08;;;;;;;19.35;8.05;;;;;;;;;;5075079;28;20084;-78
2021/12/03 01:37:35;;;;;;;21.33;9.15;;;;;;;;;;5075350;28;20051;-78
2021/12/03 01:40:03;;;;;;;20.45;9.10;;;;;;;;;;5075678;28;20057;-79
2021/12/03 01:42:29;;;;;;;22.48;9.32;;;;;;;;;;5074658;28;20061;-79
2021/12/03 01:44:56;;;;;;;16.77;8.43;;;;;;;;;;5076477;28;20057;-79
2021/12/03 01:47:22;;;;;;;22.15;8.50;;;;;;;;;;5076425;28;20110;-79
2021/12/03 01:49:48;;;;;;;23.30;9.02;;;;;;;;;;5077211;28;20045;-79
2021/12/03 01:52:15;;;;;;;19.27;7.82;;;;;;;;;;5076463;28;20398;-79
2021/12/03 01:54:41;;;;;;;19.77;8.82;;;;;;;;;;5071732;28;20044;-79
2021/12/03 01:57:08;;;;;;;16.27;7.85;;;;;;;;;;5076655;28;20076;-79
2021/12/03 01:59:34;;;;;;;27.38;9.18;;;;;;;;;;5074533;28;20052;-79
2021/12/03 02:02:00;;;;;;;15.98;7.80;;;;;;;;;;5073949;28;20126;-79
2021/12/03 02:04:27;;;;;;;25.50;8.48;;;;;;;;;;5085958;28;20059;-78
2021/12/03 02:06:53;;;;;;;22.30;8.52;;;;;;;;;;5094356;28;20060;-78
2021/12/03 02:09:20;;;;;;;20.27;8.35;;;;;;;;;;5081048;28;20049;-79
2021/12/03 02:11:46;;;;;;;15.98;7.35;;;;;;;;;;5076277;28;20108;-78
2021/12/03 02:14:13;;;;;;;21.63;7.63;;;;;;;;;;5076365;28;20057;-79
2021/12/03 02:16:40;;;;;;;16.60;7.28;;;;;;;;;;5077500;28;20061;-79
2021/12/03 02:19:06;;;;;;;21.08;8.15;;;;;;;;;;5077450;28;20057;-79
2021/12/03 02:21:33;;;;;;;16.70;7.20;;;;;;;;;;5083450;28;20067;-79
2021/12/03 02:23:59;;;;;;;20.42;7.65;;;;;;;;;;5075548;28;20092;-78
2021/12/03 02:26:25;;;;;;;17.02;7.18;;;;;;;;;;5075955;28;20099;-79
2021/12/03 02:28:52;;;;;;;18.50;7.63;;;;;;;;;;5074802;28;20057;-79
2021/12/03 02:31:20;;;;;;;19.75;7.30;;;;;;;;;;5076159;28;20095;-79
2021/12/03 02:33:46;;;;;;;16.63;7.25;;;;;;;;;;5075062;28;20072;-78
2021/12/03 02:36:13;;;;;;;16.80;6.97;;;;;;;;;;5074150;28;20053;-79
2021/12/03 02:38:39;;;;;;;19.25;7.88;;;;;;;;;;5075155;28;20090;-79
2021/12/03 02:41:06;;;;;;;17.48;7.50;;;;;;;;;;5073527;28;20064;-78
2021/12/03 02:43:32;;;;;;;18.67;7.70;;;;;;;;;;5071851;28;20083;-78
2021/12/03 02:45:59;;;;;;;15.23;7.38;;;;;;;;;;5074712;28;20064;-79
2021/12/03 02:48:25;;;;;;;20.05;8.35;;;;;;;;;;5073487;28;20143;-80
2021/12/03 02:50:52;;;;;;;19.67;7.63;;;;;;;;;;5072425;28;20114;-79
2021/12/03 02:53:19;;;;;;;17.98;7.68;;;;;;;;;;5073881;28;20542;-78
2021/12/03 02:55:45;;;;;;;13.85;7.50;;;;;;;;;;5087338;28;20056;-79
2021/12/03 02:58:12;;;;;;;15.63;7.25;;;;;;;;;;5092324;28;20060;-79
2021/12/03 03:00:39;;;;;;;16.05;7.50;;;;;;;;;;5066946;28;20052;-78
2021/12/03 03:03:06;;;;;;;17.02;7.50;;;;;;;;;;5072476;28;20057;-79
2021/12/03 03:05:32;;;;;;;12.80;7.10;;;;;;;;;;5072765;28;20049;-79
2021/12/03 03:07:59;;;;;;;17.80;7.80;;;;;;;;;;5071129;28;20053;-79
2021/12/03 03:10:31;;;;;;;21.50;7.15;;;;;;;;;;5068004;28;20087;-79
2021/12/03 03:12:58;;;;;;;18.15;7.80;;;;;;;;;;5087037;28;20056;-79
2021/12/03 03:15:25;;;;;;;14.48;6.63;;;;;;;;;;5072553;28;20041;-79
2021/12/03 03:17:52;;;;;;;17.95;7.88;;;;;;;;;;5073647;28;20057;-78
2021/12/03 03:20:18;;;;;;;15.07;7.60;;;;;;;;;;5072195;28;20063;-79
2021/12/03 03:22:47;;;;;;;20.88;8.13;;;;;;;;;;5071317;28;20088;-79
2021/12/03 03:25:15;;;;;;;18.60;7.68;;;;;;;;;;5052328;28;20452;-78
2021/12/03 03:27:42;;;;;;;17.50;8.52;;;;;;;;;;5068796;28;20123;-78
2021/12/03 03:30:11;;;;;;;20.95;8.32;;;;;;;;;;5072489;28;20048;-79
2021/12/03 03:32:38;;;;;;;23.83;8.60;;;;;;;;;;5070259;28;20661;-79
2021/12/03 03:35:04;;;;;;;16.55;8.13;;;;;;;;;;5070141;28;20111;-79
2021/12/03 03:37:31;;;;;;;22.58;9.40;;;;;;;;;;5070017;28;20111;-79
2021/12/03 03:39:57;;;;;;;21.70;9.10;;;;;;;;;;5070603;28;20057;-78
2021/12/03 03:42:24;;;;;;;23.50;9.80;;;;;;;;;;5072033;28;20060;-78
2021/12/03 03:44:53;;;;;;;21.98;9.55;;;;;;;;;;5069845;28;20037;-78
2021/12/03 03:47:19;;;;;;;24.13;9.70;;;;;;;;;;5090491;28;20057;-78
2021/12/03 03:49:46;;;;;;;26.73;10.40;;;;;;;;;;5069490;28;20103;-78
2021/12/03 03:52:12;;;;;;;23.08;9.65;;;;;;;;;;5069610;28;20049;-78
2021/12/03 03:54:38;;;;;;;21.83;9.77;;;;;;;;;;5071738;28;20079;-79
2021/12/03 03:57:05;;;;;;;29.42;11.45;;;;;;;;;;5070177;28;20595;-79
2021/12/03 03:59:31;;;;;;;27.58;11.10;;;;;;;;;;5070404;28;20053;-79
2021/12/03 04:01:58;;;;;;;31.20;11.57;;;;;;;;;;5070836;28;20096;-78
2021/12/03 04:04:25;;;;;;;26.83;11.35;;;;;;;;;;5070389;28;20578;-78
2021/12/03 04:06:53;;;;;;;25.70;11.10;;;;;;;;;;5057099;28;20099;-79
2021/12/03 04:09:19;;;;;;;27.48;11.65;;;;;;;;;;5070994;28;20091;-78
2021/12/03 04:11:46;;;;;;;26.45;11.63;;;;;;;;;;5070054;28;20053;-79
2021/12/03 04:14:12;;;;;;;29.15;11.60;;;;;;;;;;5071148;28;20056;-79
2021/12/03 04:16:38;;;;;;;25.52;11.13;;;;;;;;;;5072177;28;20119;-79
2021/12/03 04:19:05;;;;;;;28.70;12.43;;;;;;;;;;5071493;28;20049;-78
2021/12/03 04:21:31;;;;;;;30.05;12.43;;;;;;;;;;5070927;28;20107;-78
2021/12/03 04:23:58;;;;;;;31.77;12.73;;;;;;;;;;5069491;28;20049;-79
2021/12/03 04:26:24;;;;;;;30.02;12.13;;;;;;;;;;5070448;28;20037;-79
2021/12/03 04:28:50;;;;;;;33.88;13.75;;;;;;;;;;5070797;28;20053;-79
2021/12/03 04:31:17;;;;;;;33.58;13.73;;;;;;;;;;5069412;28;20134;-78
2021/12/03 04:33:43;;;;;;;26.85;13.07;;;;;;;;;;5069213;28;20061;-78
2021/12/03 04:36:10;;;;;;;32.35;13.45;;;;;;;;;;5069374;28;20045;-78
2021/12/03 04:38:36;;;;;;;34.47;13.73;;;;;;;;;;5054036;28;20640;-79
2021/12/03 04:41:03;;;;;;;38.22;15.50;;;;;;;;;;5068008;28;20111;-79
2021/12/03 04:43:30;;;;;;;38.63;15.82;;;;;;;;;;5067905;28;20064;-79
2021/12/03 04:45:57;;;;;;;40.03;16.77;;;;;;;;;;5067764;28;20119;-79
2021/12/03 04:48:23;;;;;;;37.80;17.05;;;;;;;;;;5067737;28;20502;-79
2021/12/03 04:50:50;;;;;;;37.70;15.98;;;;;;;;;;5068915;28;20044;-80
2021/12/03 04:53:17;;;;;;;39.97;16.58;;;;;;;;;;5073833;28;20127;-80
2021/12/03 04:55:44;;;;;;;37.90;16.05;;;;;;;;;;5074489;28;20056;-80
2021/12/03 04:58:10;;;;;;;36.90;16.00;;;;;;;;;;5074550;28;20053;-79
2021/12/03 05:00:41;;;;;;;38.13;15.93;;;;;;;;;;5073905;28;20053;-80
2021/12/03 05:03:08;;;;;;;42.72;15.88;;;;;;;;;;5072581;28;20059;-79
2021/12/03 05:05:36;;;;;;;36.67;15.32;;;;;;;;;;5073892;28;20570;-79
2021/12/03 05:08:07;;;;;;;32.47;15.27;;;;;;;;;;5073906;28;20115;-80
2021/12/03 05:10:35;;;;;;;37.10;16.70;;;;;;;;;;5073639;28;20049;-80
2021/12/03 05:13:03;;;;;;;36.13;16.63;;;;;;;;;;5067693;28;20057;-79
2021/12/03 05:15:30;;;;;;;32.85;15.80;;;;;;;;;;5056128;28;20041;-80
2021/12/03 05:17:57;;;;;;;30.00;14.02;;;;;;;;;;5073515;28;20068;-79
2021/12/03 05:20:23;;;;;;;30.60;15.27;;;;;;;;;;5072112;28;20080;-80
2021/12/03 05:22:51;;;;;;;32.60;14.73;;;;;;;;;;5072263;28;20079;-79
2021/12/03 05:25:17;;;;;;;37.90;15.10;;;;;;;;;;5072455;28;20464;-80
2021/12/03 05:27:44;;;;;;;33.50;15.35;;;;;;;;;;5072421;28;20080;-79
2021/12/03 05:30:11;;;;;;;31.85;15.48;;;;;;;;;;5071787;28;20057;-80
2021/12/03 05:32:37;;;;;;;37.03;15.65;;;;;;;;;;5071616;28;20045;-79
2021/12/03 05:35:04;;;;;;;30.10;13.50;;;;;;;;;;5067912;28;20487;-79
2021/12/03 05:37:31;;;;;;;34.75;14.60;;;;;;;;;;5067683;28;20582;-79
2021/12/03 05:39:57;;;;;;;39.03;15.48;;;;;;;;;;5068644;28;20065;-79
2021/12/03 05:42:24;;;;;;;39.67;15.57;;;;;;;;;;5066614;28;20103;-79
2021/12/03 05:44:50;;;;;;;34.25;15.52;;;;;;;;;;5068337;28;20126;-79
2021/12/03 05:47:16;;;;;;;36.75;15.32;;;;;;;;;;5068142;28;20118;-79
2021/12/03 05:49:43;;;;;;;35.42;15.57;;;;;;;;;;5066901;28;20053;-78
2021/12/03 05:52:09;;;;;;;34.65;15.27;;;;;;;;;;5070266;28;20126;-78
2021/12/03 05:54:36;;;;;;;36.50;15.88;;;;;;;;;;5066883;28;20060;-78
2021/12/03 05:57:02;;;;;;;37.70;16.02;;;;;;;;;;5065191;28;20057;-78
2021/12/03 05:59:28;;;;;;;37.25;14.50;;;;;;;;;;5065191;28;20056;-77
2021/12/03 06:01:55;;;;;;;39.22;16.33;;;;;;;;;;5071663;28;20076;-78
2021/12/03 06:04:21;;;;;;;35.15;15.48;;;;;;;;;;5085650;28;20053;-78
2021/12/03 06:06:48;;;;;;;39.97;16.65;;;;;;;;;;5086936;28;20110;-78
2021/12/03 06:09:14;;;;;;;39.72;16.17;;;;;;;;;;5085434;28;20052;-78
2021/12/03 06:11:41;;;;;;;36.80;16.10;;;;;;;;;;5071024;28;20049;-78
2021/12/03 06:14:07;;;;;;;40.85;16.95;;;;;;;;;;5067961;28;20174;-78
2021/12/03 06:16:34;;;;;;;35.58;15.02;;;;;;;;;;5069403;28;20053;-78
2021/12/03 06:19:00;;;;;;;35.28;15.60;;;;;;;;;;5069608;28;20057;-78
2021/12/03 06:21:26;;;;;;;39.38;17.15;;;;;;;;;;5069989;28;20111;-78
2021/12/03 06:23:53;;;;;;;41.90;15.45;;;;;;;;;;5069262;28;20057;-78
2021/12/03 06:26:19;;;;;;;45.10;16.95;;;;;;;;;;5069857;28;20174;-78
2021/12/03 06:28:46;;;;;;;41.63;15.50;;;;;;;;;;5068515;28;20057;-78
2021/12/03 06:31:12;;;;;;;35.85;15.95;;;;;;;;;;5068766;28;20053;-78
2021/12/03 06:33:39;;;;;;;32.58;14.07;;;;;;;;;;5070083;28;20111;-78
2021/12/03 06:36:06;;;;;;;32.78;14.98;;;;;;;;;;5076058;28;20542;-78
2021/12/03 06:38:33;;;;;;;35.30;14.48;;;;;;;;;;5084153;28;20052;-78
2021/12/03 06:41:00;;;;;;;45.03;15.95;;;;;;;;;;5067551;28;20138;-77
2021/12/03 06:43:26;;;;;;;39.53;16.23;;;;;;;;;;5069096;28;20586;-78
2021/12/03 06:45:53;;;;;;;38.45;15.63;;;;;;;;;;5068951;28;20055;-78
2021/12/03 06:48:19;;;;;;;41.83;14.93;;;;;;;;;;5067553;28;20063;-78
2021/12/03 06:50:49;;;;;;;47.85;16.20;;;;;;;;;;5067884;28;20111;-78
2021/12/03 06:53:16;;;;;;;37.10;14.73;;;;;;;;;;5077290;28;20064;-78
2021/12/03 06:55:57;;;;;;;40.50;13.95;;;;;;;;;;5082230;28;20117;-78
2021/12/03 06:58:23;;;;;;;46.47;14.98;;;;;;;;;;5068358;28;20112;-78
2021/12/03 07:00:54;;;;;;;37.88;13.98;;;;;;;;;;5066984;28;20522;-78
2021/12/03 07:03:20;;;;;;;;;;;;;;;;;;5069578;28;20059;-78
2021/12/03 07:05:47;;;;;;;34.15;13.60;;;;;;;;;;5067066;28;45144;-78
2021/12/03 07:08:14;;;;;;;39.20;12.65;;;;;;;;;;5068124;28;20582;-78
2021/12/03 07:10:41;;;;;;;39.08;13.32;;;;;;;;;;5068748;28;21666;-79
2021/12/03 07:13:07;;;;;;;40.42;13.65;;;;;;;;;;5067353;28;20088;-79
2021/12/03 07:15:34;;;;;;;47.88;14.20;;;;;;;;;;5067777;28;20108;-79
2021/12/03 07:18:02;;;;;;;41.95;12.77;;;;;;;;;;5067731;28;20049;-79
2021/12/03 07:20:28;;;;;;;37.97;12.55;;;;;;;;;;5067810;28;20857;-78
2021/12/03 07:22:55;;;;;;;36.47;11.90;;;;;;;;;;5062545;28;20084;-79
2021/12/03 07:25:22;;;;;;;34.97;12.23;;;;;;;;;;5058176;28;20172;-78
2021/12/03 07:27:49;;;;;;;37.50;11.38;;;;;;;;;;5067856;28;20499;-78
2021/12/03 07:30:16;;;;;;;42.75;12.55;;;;;;;;;;5059249;28;20125;-79
2021/12/03 07:32:43;;;;;;;36.38;11.73;;;;;;;;;;5066713;28;20057;-79
2021/12/03 07:35:10;;;;;;;34.53;10.73;;;;;;;;;;5067621;28;20053;-78
2021/12/03 07:37:37;;;;;;;31.95;10.95;;;;;;;;;;5065036;28;20543;-78
2021/12/03 07:40:04;;;;;;;34.10;11.65;;;;;;;;;;5066472;28;20616;-78
2021/12/03 07:42:31;;;;;;;34.05;11.32;;;;;;;;;;5066352;28;20132;-78
2021/12/03 07:44:58;;;;;;;33.40;10.75;;;;;;;;;;5068320;28;20057;-79
2021/12/03 07:47:24;;;;;;;23.80;9.38;;;;;;;;;;5066323;28;20084;-78
2021/12/03 07:49:51;;;;;;;26.50;9.77;;;;;;;;;;5067309;28;20099;-78
2021/12/03 07:52:19;;;;;;;30.48;9.82;;;;;;;;;;5067001;28;20127;-78
2021/12/03 07:54:46;;;;;;;21.20;8.98;;;;;;;;;;5067888;28;20048;-79
2021/12/03 07:57:13;;;;;;;23.52;9.25;;;;;;;;;;5067751;28;20107;-78
2021/12/03 07:59:39;;;;;;;27.83;9.10;;;;;;;;;;5066716;28;20088;-78
2021/12/03 08:02:06;;;;;;;24.70;9.23;;;;;;;;;;5069961;28;20103;-79
2021/12/03 08:04:33;;;;;;;22.02;7.60;;;;;;;;;;5066242;28;20056;-78
2021/12/03 08:07:00;;;;;;;22.40;7.70;;;;;;;;;;5064620;28;20058;-78
2021/12/03 08:09:27;;;;;;;32.28;8.35;;;;;;;;;;5066731;28;20119;-80
2021/12/03 08:11:54;;;;;;;21.02;8.10;;;;;;;;;;5068039;28;20559;-78
2021/12/03 08:14:20;;;;;;;25.95;7.07;;;;;;;;;;5066328;28;20049;-78
2021/12/03 08:16:46;;;;;;;20.55;7.60;;;;;;;;;;5065359;28;21270;-78
2021/12/03 08:19:13;;;;;;;20.02;7.07;;;;;;;;;;5065714;28;20064;-79
2021/12/03 08:21:39;;;;;;;19.90;7.50;;;;;;;;;;5065941;28;20053;-78
2021/12/03 08:24:05;;;;;;;22.25;7.22;;;;;;;;;;5065966;28;20080;-78
2021/12/03 08:26:32;;;;;;;18.30;6.50;;;;;;;;;;5066663;28;20049;-78
2021/12/03 08:28:59;;;;;;;23.63;7.53;;;;;;;;;;5060312;28;20045;-78
2021/12/03 08:31:25;;;;;;;19.77;7.20;;;;;;;;;;5066323;28;20056;-78
2021/12/03 08:33:52;;;;;;;29.38;8.05;;;;;;;;;;5067331;28;20052;-78
2021/12/03 08:36:19;;;;;;;30.30;6.70;;;;;;;;;;5065980;28;20507;-76
2021/12/03 08:38:46;;;;;;;21.98;6.70;;;;;;;;;;5067046;28;20135;-76
2021/12/03 08:41:17;;;;;;;22.52;6.95;;;;;;;;;;5065544;28;20136;-76
2021/12/03 08:43:44;;;;;;;24.27;7.25;;;;;;;;;;5065701;28;20065;-76
2021/12/03 08:46:16;;;;;;;29.92;7.90;;;;;;;;;;5066036;28;20081;-78
2021/12/03 08:48:46;;;;;;;21.52;7.22;;;;;;;;;;5064170;28;20049;-76
2021/12/03 08:51:27;;;;;;;19.07;6.30;;;;;;;;;;5066663;28;20103;-75
2021/12/03 08:56:38;;;;;;;27.73;7.40;;;;;;;;;;5064374;28;20131;-76
2021/12/03 08:59:06;;;;;;;32.50;8.15;;;;;;;;;;5066531;28;20138;-78
2021/12/03 09:01:32;;;;;;;23.73;6.55;;;;;;;;;;5062979;28;20109;-78
2021/12/03 09:03:59;;;;;;;21.42;6.10;;;;;;;;;;5058789;28;20080;-78
2021/12/03 09:06:26;;;;;;;24.60;6.53;;;;;;;;;;5066358;28;20084;-78
2021/12/03 09:08:53;;;;;;;23.15;7.80;;;;;;;;;;5054333;28;20500;-78
2021/12/03 09:11:20;;;;;;;26.08;6.15;;;;;;;;;;5058183;28;20057;-78
2021/12/03 09:13:48;;;;;;;25.75;5.38;;;;;;;;;;5063368;28;20586;-78
2021/12/03 09:16:18;;;;;;;21.38;5.70;;;;;;;;;;5065718;28;20053;-78
2021/12/03 09:18:46;;;;;;;24.55;5.90;;;;;;;;;;5065279;28;20052;-78
2021/12/03 09:21:22;;;;;;;18.95;4.88;;;;;;;;;;5066585;28;20045;-78
2021/12/03 09:26:26;;;;;;;12.82;4.32;;;;;;;;;;5069706;28;20577;-78
2021/12/03 09:29:13;;;;;;;15.48;4.53;;;;;;;;;;5055033;28;20535;-78
2021/12/03 09:31:42;;;;;;;18.67;4.18;;;;;;;;;;5057953;28;20052;-78
2021/12/03 09:34:10;;;;;;;17.30;4.30;;;;;;;;;;5066791;28;20059;-78
2021/12/03 09:36:40;;;;;;;14.45;4.15;;;;;;;;;;5064495;28;20056;-78
2021/12/03 09:39:09;;;;;;;15.73;3.67;;;;;;;;;;5065628;28;20521;-78
2021/12/03 09:41:36;;;;;;;10.57;3.80;;;;;;;;;;5063931;28;20080;-78
2021/12/03 09:44:02;;;;;;;14.50;4.15;;;;;;;;;;5063811;28;20107;-78
2021/12/03 09:46:30;;;;;;;18.35;4.50;;;;;;;;;;5064660;28;20136;-78
2021/12/03 09:57:18;;;;;;;14.75;3.78;;;;;;;;;;5067350;28;20686;-78
2021/12/03 10:02:25;;;;;;;;;;;;;;;;;;5075800;28;20057;-78
2021/12/03 10:15:08;;;;;;;8.73;3.10;;;;;;;;;;5068836;28;20053;-78
2021/12/03 10:20:15;;;;;;;11.75;3.15;;;;;;;;;;5060829;28;20053;-78
2021/12/03 10:39:07;;;;;;;21.23;4.18;;;;;;;;;;5069791;28;20516;-78
2021/12/03 10:41:42;;;;;;;13.63;3.67;;;;;;;;;;5053727;28;20116;-78
2021/12/03 10:44:19;;;;;;;14.13;3.00;;;;;;;;;;5064919;28;20084;-78
2021/12/03 10:57:40;;;;;;;15.23;3.50;;;;;;;;;;5069113;28;20041;-78
2021/12/03 11:04:12;;;;;;;10.70;3.05;;;;;;;;;;5065915;28;20882;-79
2021/12/03 11:44:49;;;;;;;11.75;3.90;;;;;;;;;;5035489;28;20131;-79
2021/12/03 12:30:40;;;;;;;10.50;4.22;;;;;;;;;;5036900;28;20550;-79
2021/12/03 12:41:23;;;;;;;10.83;3.73;;;;;;;;;;5067364;28;20519;-79
2021/12/03 13:00:51;;;;;;;8.95;3.25;;;;;;;;;;5047370;28;20061;-77
2021/12/03 13:10:56;;;;;;;7.43;2.90;;;;;;;;;;5064542;28;20048;-77
2021/12/03 13:41:40;;;;;;;8.57;3.47;;;;;;;;;;5069408;28;20057;-77
2021/12/03 14:38:13;;;;;;;11.10;5.05;;;;;;;;;;5061528;28;20128;-77
2021/12/03 14:43:13;;;;;;;9.57;4.68;;;;;;;;;;5063945;28;20527;-77
2021/12/03 14:57:06;;;;;;;12.88;5.63;;;;;;;;;;5065027;28;20056;-76
2021/12/03 14:59:33;;;;;;;9.38;5.03;;;;;;;;;;5066385;28;20123;-76
2021/12/03 15:02:26;;;;;;;11.65;6.47;;;;;;;;;;5060746;28;20061;-76
2021/12/03 15:07:36;;;;;;;11.30;6.72;;;;;;;;;;5075961;28;20614;-76
2021/12/03 15:10:07;;;;;;;16.02;6.88;;;;;;;;;;5053007;28;20056;-76
2021/12/03 15:13:10;;;;;;;15.15;7.05;;;;;;;;;;5067642;28;20080;-79
2021/12/03 15:21:24;;;;;;;14.82;6.30;;;;;;;;;;5059716;28;20056;-77
2021/12/03 15:27:02;;;;;;;13.25;7.60;;;;;;;;;;5068795;28;20511;-77
2021/12/03 15:32:00;;;;;;;14.57;7.72;;;;;;;;;;5067941;28;20057;-77
2021/12/03 15:34:48;;;;;;;13.20;8.15;;;;;;;;;;5068771;28;20557;-77
2021/12/03 15:54:21;;;;;;;15.75;8.23;;;;;;;;;;5067402;28;20397;-77
2021/12/03 16:05:00;;;;;;;14.05;7.88;;;;;;;;;;5066678;28;20048;-77
2021/12/03 16:10:18;;;;;;;11.57;7.20;;;;;;;;;;5067604;28;20110;-77
2021/12/03 16:15:36;;;;;;;15.77;8.68;;;;;;;;;;5072465;28;20130;-77
2021/12/03 16:23:46;;;;;;;14.25;8.32;;;;;;;;;;5066187;28;20057;-77
2021/12/03 16:51:23;;;;;;;20.80;10.35;;;;;;;;;;5068239;28;20427;-76
2021/12/03 16:53:52;;;;;;;;;;;;;;;;;;5064788;28;20119;-76
2021/12/03 16:56:27;;;;;;;16.10;8.25;;;;;;;;;;5066005;28;48291;-77
2021/12/03 16:58:55;;;;;;;16.10;9.73;;;;;;;;;;5067436;28;20111;-77
2021/12/03 17:01:33;;;;;;;17.15;10.10;;;;;;;;;;5064400;28;20053;-77
2021/12/03 17:49:57;;;;;;;18.10;10.60;;;;;;;;;;5068507;28;20053;-78
2021/12/03 17:57:51;;;;;;;18.40;10.88;;;;;;;;;;5047755;28;20057;-78
2021/12/03 18:08:48;;;;;;;18.05;10.55;;;;;;;;;;5056437;28;20111;-78
2021/12/03 18:14:19;;;;;;;18.48;10.90;;;;;;;;;;5070701;28;20630;-79
2021/12/03 18:56:51;;;;;;;20.75;12.05;;;;;;;;;;5068835;28;20060;-78
2021/12/03 18:59:18;;;;;;;20.90;12.00;;;;;;;;;;5067524;28;20068;-78
2021/12/03 19:01:46;;;;;;;23.33;14.05;;;;;;;;;;5068372;28;20075;-78
2021/12/03 19:04:20;;;;;;;20.65;11.63;;;;;;;;;;5067268;28;20143;-78
2021/12/03 19:06:51;;;;;;;21.65;12.10;;;;;;;;;;5068800;28;20593;-77
2021/12/03 19:09:32;;;;;;;23.25;13.07;;;;;;;;;;5069287;28;20076;-78
2021/12/03 19:12:03;;;;;;;24.48;12.43;;;;;;;;;;5067189;28;20049;-78
2021/12/03 19:14:33;;;;;;;25.30;13.20;;;;;;;;;;5066671;28;20111;-78
2021/12/03 19:16:59;;;;;;;22.88;12.35;;;;;;;;;;5067007;28;20581;-78
2021/12/03 19:19:28;;;;;;;25.15;13.90;;;;;;;;;;5068703;28;20889;-78
2021/12/03 19:21:57;;;;;;;27.65;14.40;;;;;;;;;;5089548;28;20060;-79
2021/12/03 19:24:25;;;;;;;29.17;14.80;;;;;;;;;;5085574;28;20045;-81
2021/12/03 19:26:51;;;;;;;27.52;15.05;;;;;;;;;;5054175;28;20057;-79
2021/12/03 19:29:19;;;;;;;30.88;15.77;;;;;;;;;;5058226;28;20049;-80
2021/12/03 19:31:50;;;;;;;33.00;14.75;;;;;;;;;;5073659;28;20048;-80
2021/12/03 19:34:20;;;;;;;29.80;15.35;;;;;;;;;;5074383;28;20138;-80
2021/12/03 19:36:47;;;;;;;30.80;15.27;;;;;;;;;;5073670;28;20076;-79
2021/12/03 19:39:15;;;;;;;27.10;14.65;;;;;;;;;;5090859;28;20053;-78
2021/12/03 19:41:49;;;;;;;29.63;13.68;;;;;;;;;;5078605;28;20053;-79
2021/12/03 19:44:31;;;;;;;31.00;14.95;;;;;;;;;;5067907;28;20049;-79
2021/12/03 19:46:58;;;;;;;27.75;14.43;;;;;;;;;;5072386;28;20049;-79
2021/12/03 19:51:57;;;;;;;35.35;20.67;;;;;;;;;;5068413;28;20057;-78
2021/12/03 19:54:23;;;;;;;24.15;13.23;;;;;;;;;;5067538;28;20569;-79
2021/12/03 19:56:54;;;;;;;;;;;;;;;;;;5070682;28;20103;-79
2021/12/03 19:59:20;;;;;;;29.63;16.75;;;;;;;;;;5067816;28;47058;-79
2021/12/03 20:01:47;;;;;;;28.33;16.10;;;;;;;;;;5068953;28;20057;-78
2021/12/03 20:04:14;;;;;;;34.03;18.80;;;;;;;;;;5073688;28;20053;-81
2021/12/03 20:06:43;;;;;;;28.98;15.48;;;;;;;;;;5068124;28;20546;-79
2021/12/03 20:09:23;;;;;;;24.55;13.10;;;;;;;;;;5074025;28;20118;-79
2021/12/03 20:11:55;;;;;;;24.33;12.90;;;;;;;;;;5061761;28;20049;-79
2021/12/03 20:14:23;;;;;;;29.73;14.13;;;;;;;;;;5069995;28;20091;-78
2021/12/03 20:17:10;;;;;;;93.45;51.78;;;;;;;;;;5074428;28;20052;-79
2021/12/03 20:19:39;;;;;;;39.55;24.10;;;;;;;;;;5075888;28;20048;-80
2021/12/03 20:22:13;;;;;;;40.15;23.85;;;;;;;;;;5062761;28;20061;-79
2021/12/03 20:25:02;;;;;;;26.67;15.18;;;;;;;;;;5070719;28;20512;-78
2021/12/03 20:27:40;;;;;;;28.05;15.52;;;;;;;;;;5059545;28;20103;-80
2021/12/03 20:30:14;;;;;;;23.83;15.88;;;;;;;;;;5076489;28;20061;-79
2021/12/03 20:33:04;;;;;;;28.88;16.33;;;;;;;;;;5075379;28;20118;-79
2021/12/03 20:38:24;;;;;;;29.13;15.93;;;;;;;;;;5067121;28;20057;-79
2021/12/03 20:40:57;;;;;;;44.83;24.30;;;;;;;;;;5057623;28;20049;-78
2021/12/03 20:43:43;;;;;;;37.85;20.35;;;;;;;;;;5068916;28;20059;-80
2021/12/03 20:46:31;;;;;;;49.38;24.27;;;;;;;;;;5075101;28;20115;-78
2021/12/03 20:49:17;;;;;;;37.95;19.50;;;;;;;;;;5068426;28;20068;-78
2021/12/03 20:54:40;;;;;;;53.22;32.20;;;;;;;;;;5060589;28;20056;-78
2021/12/03 20:57:44;;;;;;;32.40;19.55;;;;;;;;;;5063853;28;20082;-78
2021/12/03 21:08:47;;;;;;;25.88;14.27;;;;;;;;;;5069952;28;20090;-79
2021/12/03 21:13:46;;;;;;;23.42;12.93;;;;;;;;;;5068814;28;20910;-78
2021/12/03 21:21:44;;;;;;;23.17;12.77;;;;;;;;;;5070622;28;20087;-79
2021/12/03 21:24:12;;;;;;;21.95;12.32;;;;;;;;;;5071546;28;20037;-80
2021/12/03 21:26:44;;;;;;;22.85;13.23;;;;;;;;;;5070397;28;20140;-79
2021/12/03 21:29:23;;;;;;;21.55;13.13;;;;;;;;;;5073063;28;20081;-78
2021/12/03 21:32:21;;;;;;;21.70;12.32;;;;;;;;;;5066492;28;20140;-78
2021/12/03 21:40:51;;;;;;;19.08;10.93;;;;;;;;;;5069981;28;20049;-79
2021/12/03 21:43:09;;;;;;;19.65;11.05;;;;;;;;;;5052126;28;20084;-78
2021/12/03 21:45:36;;;;;;;22.75;13.57;;;;;;;;;;5054364;28;20045;-79
2021/12/03 21:48:02;;;;;;;19.30;10.48;;;;;;;;;;5070560;28;20060;-80
2021/12/03 21:50:29;;;;;;;21.88;12.75;;;;;;;;;;5073532;28;20119;-78
2021/12/03 21:52:55;;;;;;;18.52;10.40;;;;;;;;;;5075529;28;20053;-80
2021/12/03 21:55:23;;;;;;;20.33;11.30;;;;;;;;;;5074497;28;20488;-78
2021/12/03 21:57:51;;;;;;;20.13;12.20;;;;;;;;;;5073735;28;20538;-79
2021/12/03 22:00:17;;;;;;;20.15;11.75;;;;;;;;;;5075003;28;20049;-80
2021/12/03 22:02:43;;;;;;;19.27;11.13;;;;;;;;;;5074541;28;20118;-80
2021/12/03 22:05:10;;;;;;;23.15;12.60;;;;;;;;;;5073764;28;20130;-78
2021/12/03 22:07:36;;;;;;;19.02;11.15;;;;;;;;;;5072700;28;20049;-80
2021/12/03 22:10:03;;;;;;;21.52;12.10;;;;;;;;;;5072328;28;20056;-80
2021/12/03 22:12:29;;;;;;;18.35;10.68;;;;;;;;;;5094053;28;20134;-79
2021/12/03 22:14:56;;;;;;;17.48;10.48;;;;;;;;;;5095486;28;20397;-79
2021/12/03 22:17:22;;;;;;;20.95;12.73;;;;;;;;;;5080982;28;20056;-80
2021/12/03 22:19:49;;;;;;;22.75;14.20;;;;;;;;;;5073041;28;20037;-79
2021/12/03 22:22:16;;;;;;;31.55;18.42;;;;;;;;;;5073268;28;20551;-78
2021/12/03 22:24:42;;;;;;;18.50;10.38;;;;;;;;;;5075938;28;20079;-80
2021/12/03 22:27:11;;;;;;;28.92;21.35;;;;;;;;;;5075778;28;20057;-80
2021/12/03 22:29:37;;;;;;;25.60;16.98;;;;;;;;;;5074086;28;20053;-79
2021/12/03 22:32:04;;;;;;;27.60;19.13;;;;;;;;;;5070379;28;20522;-80
2021/12/03 22:34:31;;;;;;;48.08;31.42;;;;;;;;;;5053976;28;20498;-80